Harman Heights, WA

10:18 AM PST on February 19, 2017 (GMT -0800)
| | Change Station
Active Advisory: Small Craft Advisory

Elev -9999 ft 0.00 °N, 0.00 °E | Updated 7 minutes ago

Rain
Rain
°F
Feels Like °F
N
Wind Variable Wind from North
Gusts mph

Today
High -- | Low -- °F
--% Chance of Precip.
Yesterday
High -- | Low -- °F
Precip. -- in
Pressure 29.47 in
Visibility 10.0 miles
Clouds Mostly Cloudy 6500 ft
Mostly Cloudy 7500 ft
Mostly Cloudy 9000 ft
Dew Point Not available.
Humidity Not available.
Rainfall --
Snow Depth Not available.
7:05 AM 5:37 PM
Last Quarter, 41% visible
METAR KRNT 191753Z 16003KT 10SM BKN065 BKN075 BKN090 07/07 A2945 RMK AO2 SLP978 60000 T00720072 10072 20039 51015 $
Pressure 29.47 in
Visibility 10.0 miles
Clouds Mostly Cloudy 6500 ft
Mostly Cloudy 7500 ft
Mostly Cloudy 9000 ft
Dew Point Not available.
Humidity Not available.
Rainfall --
Snow Depth Not available.
7:05 AM 5:37 PM
Last Quarter, 41% visible
METAR KRNT 191753Z 16003KT 10SM BKN065 BKN075 BKN090 07/07 A2945 RMK AO2 SLP978 60000 T00720072 10072 20039 51015 $

Get Your Daily Forecast Email!

Thanks for signing up!

Be on the lookout for a verification email in your inbox.

You'll start receiving the daily forecast at 8 AM.

×

10-Day Weather Forecast

Almanac

Astronomy

Feb. 19, 2017 Rise Set
Actual Time
Civil Twilight
Nautical Twilight
Astronomical Twilight
Moon
Length of Visible Light
Length of Day
Tomorrow will be .
, % of the Moon is Illuminated

Today's Extremes

State Highs State Lows

Community

WunderPhotos

Upload Photos

1,962,540 photos uploaded!

WunderBlog® & News

Nearby

Air Quality

  Air Quality AQ Index Pollutant
Not available.

Snow Depth

Station Depth Elevation

Earthquake Activity

City Distance Mag. Time & Date
Minimum magnitude displayed is 2.5.

Coastal Water Temperatures

Place Temperature

Stations

Nearby Weather Stations

Station Location Temp. Windchill Dew Point Humidity Wind Precip. Elev Updated Type
                   

Watches & Warnings

Small Craft Advisory
Issued: 8:52 AM PST Feb. 19, 2017 – National Weather Service

... Small Craft Advisory now in effect until midnight PST tonight...

* winds... south 15 to 25 knots.

* Waves/seas... wind waves 2 to 4 feet.

Precautionary/preparedness actions...

A Small Craft Advisory means that wind speeds of 21 to 33 knots are
expected to produce hazardous wave conditions to small craft.
Inexperienced mariners... especially those operating smaller vessels
should avoid navigating in these conditions.